createdAt,value
2022-10-05T00:01:57.164Z,18.80
2022-10-05T00:04:30.641Z,18.82
2022-10-05T00:07:10.734Z,18.72
2022-10-05T00:09:44.320Z,18.79
2022-10-05T00:12:20.326Z,18.75
2022-10-05T00:14:57.812Z,18.73
2022-10-05T00:17:32.052Z,18.75
2022-10-05T00:20:17.941Z,18.75
2022-10-05T00:22:56.732Z,18.66
2022-10-05T00:25:30.025Z,18.68
2022-10-05T00:28:02.982Z,18.64
2022-10-05T00:30:35.813Z,18.70
2022-10-05T00:33:10.477Z,18.73
2022-10-05T00:35:43.383Z,18.75
2022-10-05T00:38:16.130Z,18.65
2022-10-05T00:41:01.916Z,18.73
2022-10-05T00:44:03.942Z,18.79
2022-10-05T00:46:48.036Z,18.74
2022-10-05T00:49:37.448Z,18.82
2022-10-05T00:52:23.531Z,18.80
2022-10-05T00:55:04.098Z,18.78
2022-10-05T00:57:47.412Z,18.85
2022-10-05T01:00:25.709Z,18.75
2022-10-05T01:03:04.717Z,18.76
2022-10-05T01:05:55.077Z,18.75
2022-10-05T01:08:38.789Z,18.65
2022-10-05T01:11:18.725Z,18.66
2022-10-05T01:14:00.640Z,18.72
2022-10-05T01:16:42.815Z,18.70
2022-10-05T01:19:35.533Z,18.70
2022-10-05T01:22:21.152Z,18.63
2022-10-05T01:25:06.967Z,18.71
2022-10-05T01:28:01.183Z,18.65
2022-10-05T01:30:40.896Z,18.67
2022-10-05T01:33:21.741Z,18.60
2022-10-05T01:36:04.664Z,18.60
2022-10-05T01:38:47.070Z,18.57
2022-10-05T01:41:33.609Z,18.51
2022-10-05T01:44:14.066Z,18.48
2022-10-05T01:46:55.974Z,18.46
2022-10-05T01:49:38.753Z,18.49
2022-10-05T01:52:28.854Z,18.46
2022-10-05T01:55:14.084Z,18.46
2022-10-05T01:58:00.099Z,18.54
2022-10-05T02:00:43.575Z,18.55
2022-10-05T02:03:20.870Z,18.46
2022-10-05T02:05:59.052Z,18.55
2022-10-05T02:08:37.568Z,18.52
2022-10-05T02:11:14.590Z,18.47
2022-10-05T02:13:54.261Z,18.50
2022-10-05T02:16:34.408Z,18.47
2022-10-05T02:19:14.961Z,18.42
2022-10-05T02:21:54.725Z,18.47
2022-10-05T02:24:33.309Z,18.45
2022-10-05T02:27:07.821Z,18.53
2022-10-05T02:29:46.669Z,18.55
2022-10-05T02:32:26.070Z,18.43
2022-10-05T02:35:02.814Z,18.43
2022-10-05T02:37:50.394Z,18.41
2022-10-05T02:40:37.199Z,18.44
2022-10-05T02:43:20.761Z,18.48
2022-10-05T02:46:02.695Z,18.50
2022-10-05T02:48:47.596Z,18.51
2022-10-05T02:51:24.074Z,18.52
2022-10-05T02:54:07.735Z,18.47
2022-10-05T02:56:48.147Z,18.53
2022-10-05T02:59:28.047Z,18.59
2022-10-05T03:02:13.199Z,18.52
2022-10-05T03:05:00.380Z,18.52
2022-10-05T03:07:38.216Z,18.39
2022-10-05T03:10:15.764Z,18.46
2022-10-05T03:12:56.892Z,18.46
2022-10-05T03:15:51.066Z,18.48
2022-10-05T03:18:36.569Z,18.49
2022-10-05T03:21:21.237Z,18.41
2022-10-05T03:24:07.935Z,18.49
2022-10-05T03:26:54.077Z,18.47
2022-10-05T03:29:36.637Z,18.47
2022-10-05T03:32:14.982Z,18.45
2022-10-05T03:34:52.407Z,18.44
2022-10-05T03:37:40.526Z,18.55
2022-10-05T03:40:26.102Z,18.46
2022-10-05T03:43:28.762Z,18.48
2022-10-05T03:46:09.702Z,18.41
2022-10-05T03:48:52.777Z,18.41
2022-10-05T03:51:32.602Z,18.31
2022-10-05T03:54:21.730Z,18.33
2022-10-05T03:56:58.011Z,18.43
2022-10-05T03:59:39.096Z,18.37
2022-10-05T04:02:21.023Z,18.38
2022-10-05T04:04:57.265Z,18.40
2022-10-05T04:07:42.719Z,18.40
2022-10-05T04:10:25.406Z,18.41
2022-10-05T04:13:04.478Z,18.42
2022-10-05T04:15:41.588Z,18.38
2022-10-05T04:18:25.759Z,18.41
2022-10-05T04:21:03.749Z,18.38
2022-10-05T04:23:46.532Z,18.37
2022-10-05T04:26:31.725Z,18.36
2022-10-05T04:29:13.189Z,18.39
2022-10-05T04:32:02.198Z,18.37
2022-10-05T04:34:47.884Z,18.38
2022-10-05T04:37:26.562Z,18.37
2022-10-05T04:40:19.440Z,18.34
2022-10-05T04:43:05.832Z,18.40
2022-10-05T04:45:53.565Z,18.36
2022-10-05T04:48:47.035Z,18.39
2022-10-05T04:51:35.469Z,18.32
2022-10-05T04:54:23.969Z,18.36
2022-10-05T04:57:01.580Z,18.42
2022-10-05T05:00:05.576Z,18.28
2022-10-05T05:02:45.388Z,18.35
2022-10-05T05:05:44.561Z,18.34
2022-10-05T05:08:41.049Z,18.40
2022-10-05T05:11:28.812Z,18.31
2022-10-05T05:14:22.510Z,18.26
2022-10-05T05:17:02.584Z,18.17
2022-10-05T05:19:46.366Z,18.12
2022-10-05T05:22:25.938Z,18.18
2022-10-05T05:25:19.539Z,18.16
2022-10-05T05:27:55.900Z,18.19
2022-10-05T05:30:44.212Z,18.13
2022-10-05T05:33:27.357Z,18.11
2022-10-05T05:36:32.058Z,18.09
2022-10-05T05:39:24.706Z,18.19
2022-10-05T05:42:02.523Z,18.11
2022-10-05T05:44:44.151Z,18.12
2022-10-05T05:47:22.006Z,18.18
2022-10-05T05:50:12.577Z,18.21
2022-10-05T05:52:50.637Z,18.32
2022-10-05T05:55:30.055Z,18.30
2022-10-05T05:58:14.751Z,18.20
2022-10-05T06:00:53.241Z,18.21
2022-10-05T06:03:34.270Z,18.16
2022-10-05T06:06:11.850Z,18.16
2022-10-05T06:08:48.544Z,18.07
2022-10-05T06:11:33.065Z,18.19
2022-10-05T06:14:13.473Z,18.18
2022-10-05T06:16:51.483Z,18.08
2022-10-05T06:19:27.440Z,18.18
2022-10-05T06:22:08.361Z,18.16
2022-10-05T06:24:52.059Z,18.29
2022-10-05T06:27:27.460Z,18.14
2022-10-05T06:30:11.062Z,18.17
2022-10-05T06:33:04.139Z,18.08
2022-10-05T06:35:49.462Z,18.07
2022-10-05T06:38:44.537Z,18.27
2022-10-05T06:41:28.937Z,18.19
2022-10-05T06:44:10.149Z,18.21
2022-10-05T06:47:07.797Z,18.26
2022-10-05T06:50:14.352Z,18.23
2022-10-05T06:53:34.983Z,18.24
2022-10-05T06:56:12.583Z,18.30
2022-10-05T06:58:55.776Z,18.33
2022-10-05T07:01:42.171Z,18.30
2022-10-05T07:04:46.265Z,18.35
2022-10-05T07:07:26.879Z,18.31
2022-10-05T07:10:16.517Z,18.28
2022-10-05T07:13:07.756Z,18.31
2022-10-05T07:15:45.786Z,18.27
2022-10-05T07:18:35.659Z,18.29
2022-10-05T07:21:17.781Z,18.38
2022-10-05T07:24:01.218Z,18.35
2022-10-05T07:26:39.527Z,18.35
2022-10-05T07:29:25.816Z,18.36
2022-10-05T07:32:08.556Z,18.33
2022-10-05T07:34:52.048Z,18.36
2022-10-05T07:37:51.181Z,18.33
2022-10-05T07:40:30.515Z,18.29
2022-10-05T07:43:15.232Z,18.31
2022-10-05T07:45:54.808Z,18.35
2022-10-05T07:48:35.447Z,18.37
2022-10-05T07:51:17.262Z,18.34
2022-10-05T07:53:59.738Z,18.34
2022-10-05T07:56:39.228Z,18.34
2022-10-05T07:59:21.038Z,18.42
2022-10-05T08:02:03.835Z,18.42
2022-10-05T08:04:48.020Z,18.47
2022-10-05T08:07:21.205Z,18.50
2022-10-05T08:10:01.028Z,18.54
2022-10-05T08:12:45.292Z,18.53
2022-10-05T08:15:23.422Z,18.60
2022-10-05T08:18:00.810Z,18.59
2022-10-05T08:20:41.268Z,18.63
2022-10-05T08:23:23.593Z,18.69
2022-10-05T08:26:07.450Z,18.61
2022-10-05T08:28:47.084Z,18.70
2022-10-05T08:31:25.217Z,18.70
2022-10-05T08:34:07.217Z,18.74
2022-10-05T08:36:54.109Z,18.89
2022-10-05T08:39:31.671Z,18.89
2022-10-05T08:42:52.292Z,18.82
2022-10-05T08:45:56.818Z,18.89
2022-10-05T08:48:49.433Z,19.00
2022-10-05T08:51:55.292Z,19.08
2022-10-05T08:55:05.772Z,18.98
2022-10-05T08:57:55.722Z,19.05
2022-10-05T09:00:40.300Z,19.00
2022-10-05T09:03:49.100Z,18.96
2022-10-05T09:06:59.916Z,18.66
2022-10-05T09:10:01.491Z,18.94
2022-10-05T09:12:57.021Z,18.77
2022-10-05T09:15:58.082Z,18.91
2022-10-05T09:19:02.529Z,18.83
2022-10-05T09:21:43.776Z,19.12
2022-10-05T09:24:28.861Z,19.00
2022-10-05T09:27:10.998Z,18.81
2022-10-05T09:30:07.002Z,18.96
2022-10-05T09:33:13.520Z,19.10
2022-10-05T09:36:13.452Z,18.95
2022-10-05T09:39:20.185Z,19.36
2022-10-05T09:42:37.660Z,19.10
2022-10-05T09:45:37.655Z,18.98
2022-10-05T09:48:47.722Z,19.15
2022-10-05T09:51:44.490Z,19.18
2022-10-05T09:54:43.631Z,19.00
2022-10-05T09:57:40.411Z,19.13
2022-10-05T10:00:35.974Z,19.11
2022-10-05T10:03:52.440Z,18.95
2022-10-05T10:06:43.218Z,19.25
2022-10-05T10:09:25.210Z,19.29
2022-10-05T10:12:19.132Z,19.11
2022-10-05T10:15:15.808Z,18.87
2022-10-05T10:18:05.640Z,19.20
2022-10-05T10:20:57.288Z,19.28
2022-10-05T10:23:55.035Z,19.25
2022-10-05T10:27:10.161Z,19.30
2022-10-05T10:30:04.903Z,19.17
2022-10-05T10:33:17.460Z,19.03
2022-10-05T10:36:03.014Z,19.17
2022-10-05T10:38:54.414Z,19.22
2022-10-05T10:41:53.034Z,19.16
2022-10-05T10:44:58.902Z,19.20
2022-10-05T10:47:51.410Z,19.19
2022-10-05T10:51:01.541Z,19.32
2022-10-05T10:54:18.963Z,19.35
2022-10-05T10:56:59.449Z,19.32
2022-10-05T11:00:04.620Z,19.50
2022-10-05T11:03:04.100Z,19.28
2022-10-05T11:06:08.536Z,19.29
2022-10-05T11:08:56.610Z,19.46
2022-10-05T11:11:58.563Z,19.44
2022-10-05T11:15:01.784Z,19.42
2022-10-05T11:18:05.999Z,19.41
2022-10-05T11:21:04.355Z,19.28
2022-10-05T11:24:08.740Z,19.44
2022-10-05T11:26:56.789Z,19.31
2022-10-05T11:30:17.512Z,19.52
2022-10-05T11:33:42.883Z,19.78
2022-10-05T11:36:47.885Z,19.76
2022-10-05T11:39:33.064Z,19.86
2022-10-05T11:42:27.009Z,19.82
2022-10-05T11:45:22.999Z,19.84
2022-10-05T11:48:14.713Z,19.84
2022-10-05T11:51:02.536Z,19.96
2022-10-05T11:53:41.733Z,20.09
2022-10-05T11:56:24.987Z,20.15
2022-10-05T11:59:01.135Z,20.26
2022-10-05T12:01:40.856Z,20.25
2022-10-05T12:04:20.953Z,20.30
2022-10-05T12:07:04.349Z,20.34
2022-10-05T12:10:17.445Z,20.39
2022-10-05T12:13:05.273Z,20.36
2022-10-05T12:15:45.655Z,20.39
2022-10-05T12:18:25.319Z,20.53
2022-10-05T12:21:03.183Z,20.38
2022-10-05T12:23:40.638Z,20.39
2022-10-05T12:26:17.374Z,20.42
2022-10-05T12:28:54.926Z,20.42
2022-10-05T12:31:36.760Z,20.48
2022-10-05T12:34:20.006Z,20.50
2022-10-05T12:37:04.122Z,20.47
2022-10-05T12:39:44.505Z,20.62
2022-10-05T12:42:29.645Z,20.61
2022-10-05T12:45:16.560Z,20.55
2022-10-05T12:48:05.314Z,20.59
2022-10-05T12:50:42.627Z,20.58
2022-10-05T12:53:29.735Z,20.62
2022-10-05T12:56:05.818Z,20.63
2022-10-05T12:58:50.258Z,20.64
2022-10-05T13:01:31.609Z,20.71
2022-10-05T13:04:18.981Z,20.64
2022-10-05T13:07:09.755Z,20.74
2022-10-05T13:09:54.386Z,20.71
2022-10-05T13:12:39.023Z,20.78
2022-10-05T13:15:20.994Z,20.82
2022-10-05T13:18:07.577Z,20.82
2022-10-05T13:20:46.928Z,20.97
2022-10-05T13:23:25.836Z,21.07
2022-10-05T13:26:04.889Z,21.10
2022-10-05T13:28:45.708Z,21.15
2022-10-05T13:31:25.645Z,21.16
2022-10-05T13:34:13.745Z,21.12
2022-10-05T13:36:58.152Z,21.14
2022-10-05T13:39:43.306Z,21.18
2022-10-05T13:42:18.856Z,21.29
2022-10-05T13:44:58.870Z,21.08
2022-10-05T13:47:39.886Z,21.15
2022-10-05T13:50:18.946Z,21.19
2022-10-05T13:53:00.440Z,21.12
2022-10-05T13:55:45.791Z,21.29
2022-10-05T13:58:29.176Z,21.25
2022-10-05T14:01:06.986Z,21.22
2022-10-05T14:03:41.357Z,21.14
2022-10-05T14:06:27.558Z,21.13
2022-10-05T14:09:00.311Z,20.97
2022-10-05T14:11:35.163Z,21.08
2022-10-05T14:14:15.892Z,21.16
2022-10-05T14:16:52.778Z,21.16
2022-10-05T14:19:31.987Z,21.14
2022-10-05T14:22:13.523Z,21.09
2022-10-05T14:24:52.547Z,21.10
2022-10-05T14:27:27.038Z,21.13
2022-10-05T14:30:02.104Z,21.12
2022-10-05T14:32:49.471Z,21.11
2022-10-05T14:35:25.577Z,21.13
2022-10-05T14:38:00.808Z,21.10
2022-10-05T14:40:35.707Z,21.10
2022-10-05T14:43:27.086Z,21.10
2022-10-05T14:46:02.628Z,21.11
2022-10-05T14:48:43.072Z,21.10
2022-10-05T14:51:31.742Z,21.16
2022-10-05T14:54:23.316Z,21.22
2022-10-05T14:57:06.325Z,21.12
2022-10-05T14:59:55.201Z,21.13
2022-10-05T15:02:48.301Z,21.15
2022-10-05T15:05:31.293Z,21.14
2022-10-05T15:08:20.984Z,21.22
2022-10-05T15:11:00.221Z,21.24
2022-10-05T15:13:37.289Z,21.13
2022-10-05T15:16:19.121Z,21.14
2022-10-05T15:19:00.055Z,21.13
2022-10-05T15:21:42.228Z,21.10
2022-10-05T15:24:20.301Z,21.10
2022-10-05T15:26:55.504Z,21.08
2022-10-05T15:29:47.319Z,21.02
2022-10-05T15:32:32.420Z,21.04
2022-10-05T15:35:27.037Z,21.03
2022-10-05T15:38:10.010Z,21.01
2022-10-05T15:40:51.526Z,20.93
2022-10-05T15:43:24.445Z,20.98
2022-10-05T15:46:03.824Z,20.89
2022-10-05T15:48:47.315Z,20.88
2022-10-05T15:51:31.730Z,20.83
2022-10-05T15:54:28.537Z,20.79
2022-10-05T15:57:09.818Z,20.67
2022-10-05T15:59:52.353Z,20.76
2022-10-05T16:02:30.875Z,20.79
2022-10-05T16:05:17.189Z,20.72
2022-10-05T16:08:08.162Z,20.70
2022-10-05T16:10:46.685Z,20.62
2022-10-05T16:13:29.550Z,20.67
2022-10-05T16:16:17.955Z,20.63
2022-10-05T16:19:04.122Z,20.57
2022-10-05T16:21:46.434Z,20.61
2022-10-05T16:24:40.902Z,20.59
2022-10-05T16:27:21.185Z,20.44
2022-10-05T16:30:01.825Z,20.58
2022-10-05T16:32:38.571Z,20.60
2022-10-05T16:35:25.691Z,20.56
2022-10-05T16:38:07.283Z,20.53
2022-10-05T16:40:45.608Z,20.39
2022-10-05T16:43:29.076Z,20.40
2022-10-05T16:46:12.047Z,20.43
2022-10-05T16:48:53.815Z,20.45
2022-10-05T16:51:32.476Z,20.39
2022-10-05T16:54:18.397Z,20.39
2022-10-05T16:56:55.247Z,20.39
2022-10-05T17:00:01.033Z,20.40
2022-10-05T17:02:52.180Z,20.30
2022-10-05T17:05:44.224Z,20.25
2022-10-05T17:08:36.779Z,20.25
2022-10-05T17:11:21.146Z,20.20
2022-10-05T17:14:11.635Z,20.23
2022-10-05T17:16:58.183Z,20.14
2022-10-05T17:20:00.436Z,20.19
2022-10-05T17:22:39.861Z,20.11
2022-10-05T17:25:18.225Z,20.15
2022-10-05T17:27:53.596Z,20.10
2022-10-05T17:30:51.398Z,20.09
2022-10-05T17:33:27.489Z,20.02
2022-10-05T17:36:19.456Z,20.02
2022-10-05T17:39:13.085Z,20.00
2022-10-05T17:41:46.887Z,19.96
2022-10-05T17:44:27.204Z,20.06
2022-10-05T17:47:01.416Z,20.02
2022-10-05T17:50:16.954Z,20.03
2022-10-05T17:53:38.574Z,20.00
2022-10-05T17:56:11.405Z,20.06
2022-10-05T17:59:02.835Z,19.96
2022-10-05T18:01:38.593Z,19.96
2022-10-05T18:04:30.386Z,19.95
2022-10-05T18:07:06.581Z,19.94
2022-10-05T18:09:56.629Z,19.90
2022-10-05T18:12:48.618Z,19.87
2022-10-05T18:15:45.050Z,19.84
2022-10-05T18:18:55.974Z,19.84
2022-10-05T18:21:33.162Z,19.79
2022-10-05T18:24:39.787Z,19.79
2022-10-05T18:27:58.369Z,19.84
2022-10-05T18:30:39.748Z,19.69
2022-10-05T18:33:54.129Z,19.76
2022-10-05T18:36:40.220Z,19.78
2022-10-05T18:39:27.623Z,19.79
2022-10-05T18:42:11.719Z,19.77
2022-10-05T18:44:49.710Z,19.68
2022-10-05T18:47:35.082Z,19.69
2022-10-05T18:50:20.929Z,19.72
2022-10-05T18:53:08.786Z,19.74
2022-10-05T18:55:46.627Z,19.61
2022-10-05T18:58:43.479Z,19.65
2022-10-05T19:01:32.369Z,19.56
2022-10-05T19:04:19.022Z,19.66
2022-10-05T19:06:59.948Z,19.54
2022-10-05T19:09:50.688Z,19.52
2022-10-05T19:12:36.993Z,19.58
2022-10-05T19:15:22.983Z,19.51
2022-10-05T19:18:30.769Z,19.48
2022-10-05T19:21:13.982Z,19.44
2022-10-05T19:24:04.427Z,19.40
2022-10-05T19:26:53.637Z,19.36
2022-10-05T19:29:39.428Z,19.36
2022-10-05T19:32:19.894Z,19.32
2022-10-05T19:35:10.007Z,19.30
2022-10-05T19:37:54.660Z,19.30
2022-10-05T19:40:36.363Z,19.26
2022-10-05T19:43:26.463Z,19.25
2022-10-05T19:46:16.322Z,19.27
2022-10-05T19:49:00.903Z,19.20
2022-10-05T19:51:37.325Z,19.13
2022-10-05T19:54:23.134Z,19.08
2022-10-05T19:56:57.723Z,19.05
2022-10-05T19:59:31.787Z,19.03
2022-10-05T20:02:06.394Z,19.02
2022-10-05T20:04:43.073Z,18.98
2022-10-05T20:07:18.053Z,18.93
2022-10-05T20:09:59.814Z,18.93
2022-10-05T20:12:53.115Z,18.98
2022-10-05T20:15:46.630Z,18.96
2022-10-05T20:18:59.782Z,18.91
2022-10-05T20:21:49.926Z,18.93
2022-10-05T20:24:25.682Z,18.91
2022-10-05T20:27:16.212Z,18.90
2022-10-05T20:29:49.150Z,18.89
2022-10-05T20:32:21.901Z,18.84
2022-10-05T20:34:56.547Z,18.87
2022-10-05T20:37:29.422Z,18.85
2022-10-05T20:40:02.244Z,18.85
2022-10-05T20:42:37.370Z,18.82
2022-10-05T20:45:12.001Z,18.82
2022-10-05T20:47:46.955Z,18.81
2022-10-05T20:50:22.197Z,18.78
2022-10-05T20:52:55.450Z,18.78
2022-10-05T20:55:31.394Z,18.73
2022-10-05T20:58:05.842Z,18.72
2022-10-05T21:00:56.374Z,18.69
2022-10-05T21:03:29.208Z,18.64
2022-10-05T21:06:03.214Z,18.56
2022-10-05T21:08:37.021Z,18.57
2022-10-05T21:11:09.897Z,18.52
2022-10-05T21:13:45.800Z,18.49
2022-10-05T21:16:19.933Z,18.55
2022-10-05T21:18:53.681Z,18.55
2022-10-05T21:21:28.262Z,18.52
2022-10-05T21:24:01.495Z,18.39
2022-10-05T21:26:35.151Z,18.31
2022-10-05T21:29:12.695Z,18.20
2022-10-05T21:31:45.993Z,18.26
2022-10-05T21:34:18.824Z,18.17
2022-10-05T21:36:51.969Z,18.10
2022-10-05T21:39:25.690Z,18.15
2022-10-05T21:42:01.332Z,18.10
2022-10-05T21:44:35.616Z,18.20
2022-10-05T21:47:08.685Z,18.12
2022-10-05T21:49:42.792Z,18.09
2022-10-05T21:52:16.491Z,18.17
2022-10-05T21:54:49.834Z,18.15
2022-10-05T21:57:23.172Z,18.09
2022-10-05T21:59:58.409Z,18.06
2022-10-05T22:02:32.573Z,18.14
2022-10-05T22:05:05.811Z,18.02
2022-10-05T22:07:38.634Z,17.99
2022-10-05T22:10:11.807Z,17.95
2022-10-05T22:12:47.265Z,17.98
2022-10-05T22:15:21.994Z,17.96
2022-10-05T22:17:55.520Z,17.98
2022-10-05T22:20:28.827Z,17.88
2022-10-05T22:23:04.219Z,17.93
2022-10-05T22:25:37.328Z,17.85
2022-10-05T22:28:14.549Z,17.88
2022-10-05T22:30:49.301Z,17.83
2022-10-05T22:33:22.097Z,17.95
2022-10-05T22:35:55.778Z,17.83
2022-10-05T22:38:31.100Z,17.75
2022-10-05T22:41:04.747Z,17.75
2022-10-05T22:43:37.621Z,17.63
2022-10-05T22:46:13.299Z,17.61
2022-10-05T22:48:46.497Z,17.74
2022-10-05T22:51:19.765Z,17.61
2022-10-05T22:53:55.655Z,17.76
2022-10-05T22:56:31.162Z,17.63
2022-10-05T22:59:04.120Z,17.51
2022-10-05T23:01:38.440Z,17.56
2022-10-05T23:04:11.920Z,17.63
2022-10-05T23:06:45.424Z,17.55
2022-10-05T23:09:18.398Z,17.65
2022-10-05T23:11:54.047Z,17.49
2022-10-05T23:14:29.337Z,17.67
2022-10-05T23:17:03.874Z,17.66
2022-10-05T23:19:36.824Z,17.58
2022-10-05T23:22:11.905Z,17.45
2022-10-05T23:24:59.928Z,17.52
2022-10-05T23:27:38.601Z,17.56
2022-10-05T23:30:13.657Z,17.60
2022-10-05T23:32:48.262Z,17.60
2022-10-05T23:35:21.087Z,17.55
2022-10-05T23:37:54.520Z,17.53
2022-10-05T23:40:27.741Z,17.37
2022-10-05T23:43:01.487Z,17.34
2022-10-05T23:45:34.793Z,17.49
2022-10-05T23:48:08.777Z,17.46
2022-10-05T23:50:42.214Z,17.32
2022-10-05T23:53:15.125Z,17.37
2022-10-05T23:55:51.065Z,17.27
2022-10-05T23:58:24.410Z,17.28
